Time;durP1;ratioP1;P1;durP2;ratioP2;P2;SDS_P1;SDS_P2;PMS_P1;PMS_P2;Temp;Humidity;BMP_temperature;BMP_pressure;BME280_temperature;BME280_humidity;BME280_pressure;Samples;Min_cycle;Max_cycle;Signal;HPM_P1;HPM_P2
2022/06/30 00:00:29;;;;;;;21.60;11.32;;;;;;;;;;4983407;28;20038;-71
2022/06/30 00:02:54;;;;;;;20.17;10.93;;;;;;;;;;4983858;28;20029;-72
2022/06/30 00:05:19;;;;;;;13.43;10.77;;;;;;;;;;4983441;28;20047;-71
2022/06/30 00:07:45;;;;;;;20.75;13.48;;;;;;;;;;4982361;28;20042;-71
2022/06/30 00:10:11;;;;;;;15.95;12.18;;;;;;;;;;4983287;28;20038;-71
2022/06/30 00:12:38;;;;;;;21.77;13.07;;;;;;;;;;4982007;28;20484;-71
2022/06/30 00:15:04;;;;;;;16.77;12.13;;;;;;;;;;4983870;28;20042;-71
2022/06/30 00:17:29;;;;;;;15.02;12.02;;;;;;;;;;4982074;28;20034;-71
2022/06/30 00:19:55;;;;;;;15.45;11.85;;;;;;;;;;4983416;28;20054;-71
2022/06/30 00:22:20;;;;;;;17.60;12.20;;;;;;;;;;4982928;28;20048;-71
2022/06/30 00:24:46;;;;;;;17.00;11.38;;;;;;;;;;4983395;28;20042;-71
2022/06/30 00:27:11;;;;;;;17.42;11.15;;;;;;;;;;4982877;28;20089;-71
2022/06/30 00:29:37;;;;;;;15.95;10.73;;;;;;;;;;4982457;28;20042;-71
2022/06/30 00:32:03;;;;;;;13.45;10.05;;;;;;;;;;4982816;28;20120;-71
2022/06/30 00:34:28;;;;;;;12.95;9.98;;;;;;;;;;4982867;28;20049;-71
2022/06/30 00:36:54;;;;;;;14.20;9.45;;;;;;;;;;4981150;28;20792;-71
2022/06/30 00:39:20;;;;;;;16.05;10.02;;;;;;;;;;4981968;28;20104;-71
2022/06/30 00:41:45;;;;;;;12.45;9.65;;;;;;;;;;4982802;28;20038;-71
2022/06/30 00:44:12;;;;;;;13.02;9.90;;;;;;;;;;4982679;28;20038;-71
2022/06/30 00:46:38;;;;;;;13.45;10.32;;;;;;;;;;4983058;28;20034;-71
2022/06/30 00:49:05;;;;;;;20.33;12.45;;;;;;;;;;4982891;28;20067;-71
2022/06/30 00:51:31;;;;;;;69.00;16.15;;;;;;;;;;4980581;28;20046;-71
2022/06/30 00:54:00;;;;;;;29.25;16.45;;;;;;;;;;4982650;28;20049;-71
2022/06/30 00:56:27;;;;;;;25.90;16.08;;;;;;;;;;4982462;28;20038;-71
2022/06/30 00:58:55;;;;;;;23.50;13.93;;;;;;;;;;4982691;28;20934;-71
2022/06/30 01:01:22;;;;;;;37.33;12.25;;;;;;;;;;4981671;28;20165;-71
2022/06/30 01:03:47;;;;;;;53.17;10.88;;;;;;;;;;4982561;28;20038;-71
2022/06/30 01:06:13;;;;;;;62.00;8.75;;;;;;;;;;4982210;28;20048;-71
2022/06/30 01:08:39;;;;;;;60.60;7.85;;;;;;;;;;4982599;28;20042;-71
2022/06/30 01:13:49;;;;;;;211.38;10.82;;;;;;;;;;4981127;28;20141;-71
2022/06/30 01:16:15;;;;;;;13.40;7.72;;;;;;;;;;4982225;28;20125;-71
2022/06/30 01:18:41;;;;;;;79.38;11.27;;;;;;;;;;4981348;28;20050;-71
2022/06/30 01:21:07;;;;;;;11.68;8.88;;;;;;;;;;4982314;28;20038;-72
2022/06/30 01:23:32;;;;;;;26.30;7.45;;;;;;;;;;4981483;28;20153;-71
2022/06/30 01:25:58;;;;;;;37.00;6.15;;;;;;;;;;4980808;28;20070;-71
2022/06/30 01:28:23;;;;;;;33.88;5.70;;;;;;;;;;4982235;28;20042;-71
2022/06/30 01:30:48;;;;;;;39.35;5.15;;;;;;;;;;4982129;28;20045;-71
2022/06/30 01:33:14;;;;;;;6.03;5.13;;;;;;;;;;4980947;28;20120;-71
2022/06/30 01:35:39;;;;;;;13.35;4.93;;;;;;;;;;4982033;28;20153;-71
2022/06/30 01:38:06;;;;;;;12.40;5.18;;;;;;;;;;4981908;28;20506;-71
2022/06/30 01:40:35;;;;;;;5.88;5.18;;;;;;;;;;4982153;28;20053;-71
2022/06/30 01:43:04;;;;;;;35.03;6.47;;;;;;;;;;4982012;28;20471;-71
2022/06/30 01:45:30;;;;;;;18.38;6.45;;;;;;;;;;4980852;28;20791;-71
2022/06/30 01:47:55;;;;;;;40.92;7.80;;;;;;;;;;4981808;28;20034;-71
2022/06/30 01:50:26;;;;;;;10.32;7.53;;;;;;;;;;4982104;28;20042;-71
2022/06/30 01:52:52;;;;;;;9.60;7.80;;;;;;;;;;4977555;28;20041;-71
2022/06/30 01:55:18;;;;;;;36.10;7.50;;;;;;;;;;4980278;28;20038;-71
2022/06/30 01:57:43;;;;;;;40.30;7.22;;;;;;;;;;4980123;28;20038;-71
2022/06/30 02:00:12;;;;;;;30.90;8.60;;;;;;;;;;4981918;28;20053;-71
2022/06/30 02:02:38;;;;;;;17.98;7.78;;;;;;;;;;4981643;28;20038;-71
2022/06/30 02:05:04;;;;;;;23.48;7.68;;;;;;;;;;4982025;28;20045;-71
2022/06/30 02:07:30;;;;;;;45.53;8.20;;;;;;;;;;4979277;28;20026;-71
2022/06/30 02:09:55;;;;;;;13.68;7.82;;;;;;;;;;4981584;28;20130;-71
2022/06/30 02:15:08;;;;;;;9.57;8.25;;;;;;;;;;4982225;28;20042;-71
2022/06/30 02:17:33;;;;;;;9.77;8.13;;;;;;;;;;4980914;28;20041;-71
2022/06/30 02:20:00;;;;;;;10.55;7.85;;;;;;;;;;4980196;28;20042;-71
2022/06/30 02:22:26;;;;;;;9.93;7.88;;;;;;;;;;4983397;28;20502;-71
2022/06/30 02:24:51;;;;;;;9.38;8.25;;;;;;;;;;4985593;28;20030;-71
2022/06/30 02:27:16;;;;;;;12.68;10.13;;;;;;;;;;4985648;28;20483;-72
2022/06/30 02:29:42;;;;;;;10.18;8.68;;;;;;;;;;4984440;28;20081;-72
2022/06/30 02:32:08;;;;;;;10.60;8.45;;;;;;;;;;4967977;28;20116;-71
2022/06/30 02:34:33;;;;;;;9.45;7.68;;;;;;;;;;4984982;28;20410;-72
2022/06/30 02:36:59;;;;;;;12.18;8.00;;;;;;;;;;4985065;28;20557;-72
2022/06/30 02:39:24;;;;;;;11.20;7.40;;;;;;;;;;4982971;28;20103;-72
2022/06/30 02:41:49;;;;;;;8.70;7.13;;;;;;;;;;4983963;28;20066;-72
2022/06/30 02:44:15;;;;;;;11.93;6.97;;;;;;;;;;4984914;28;20049;-72
2022/06/30 02:46:41;;;;;;;9.07;7.47;;;;;;;;;;4983629;28;20141;-72
2022/06/30 02:49:06;;;;;;;8.85;6.70;;;;;;;;;;4983887;28;20069;-72
2022/06/30 02:51:32;;;;;;;9.95;7.18;;;;;;;;;;4983849;28;20537;-72
2022/06/30 02:53:57;;;;;;;7.57;6.80;;;;;;;;;;4984844;28;20042;-72
2022/06/30 02:56:22;;;;;;;7.35;6.65;;;;;;;;;;4984668;28;20050;-72
2022/06/30 02:58:49;;;;;;;6.47;5.88;;;;;;;;;;4985194;28;20039;-72
2022/06/30 03:01:14;;;;;;;7.43;6.75;;;;;;;;;;4983795;28;20044;-71
2022/06/30 03:03:40;;;;;;;8.35;6.95;;;;;;;;;;4984711;28;20034;-71
2022/06/30 03:06:05;;;;;;;8.20;7.40;;;;;;;;;;4984625;28;20081;-72
2022/06/30 03:08:31;;;;;;;12.02;7.07;;;;;;;;;;4984542;28;20043;-72
2022/06/30 03:10:56;;;;;;;6.85;5.97;;;;;;;;;;4984546;28;20038;-72
2022/06/30 03:13:22;;;;;;;6.32;5.80;;;;;;;;;;4983666;28;20093;-72
2022/06/30 03:15:49;;;;;;;6.28;5.68;;;;;;;;;;4984513;28;20038;-72
2022/06/30 03:18:15;;;;;;;11.93;6.32;;;;;;;;;;4982971;28;20049;-71
2022/06/30 03:20:40;;;;;;;11.82;6.63;;;;;;;;;;4984496;28;20038;-72
2022/06/30 03:23:06;;;;;;;10.43;6.60;;;;;;;;;;4982379;28;20042;-72
2022/06/30 03:25:31;;;;;;;6.95;6.25;;;;;;;;;;4982898;28;20145;-71
2022/06/30 03:27:57;;;;;;;7.90;6.30;;;;;;;;;;4984032;28;20053;-71
2022/06/30 03:30:22;;;;;;;8.25;5.90;;;;;;;;;;4984089;28;20399;-71
2022/06/30 03:32:48;;;;;;;6.95;6.28;;;;;;;;;;4983239;28;20185;-71
2022/06/30 03:35:13;;;;;;;8.93;6.43;;;;;;;;;;4981146;28;20046;-72
2022/06/30 03:37:39;;;;;;;8.77;7.43;;;;;;;;;;4983834;28;20078;-71
2022/06/30 03:40:05;;;;;;;10.15;6.65;;;;;;;;;;4984153;28;20058;-71
2022/06/30 03:42:30;;;;;;;7.28;6.57;;;;;;;;;;4982481;28;20134;-71
2022/06/30 03:44:56;;;;;;;7.63;6.82;;;;;;;;;;4984168;28;20045;-71
2022/06/30 03:47:21;;;;;;;7.32;6.63;;;;;;;;;;4982908;28;20102;-72
2022/06/30 03:49:46;;;;;;;10.00;6.18;;;;;;;;;;4984159;28;20038;-72
2022/06/30 03:52:12;;;;;;;9.35;5.68;;;;;;;;;;4979987;28;20093;-72
2022/06/30 03:54:38;;;;;;;9.40;5.65;;;;;;;;;;4983409;28;20042;-71
2022/06/30 03:57:04;;;;;;;7.95;5.93;;;;;;;;;;4982737;28;20042;-72
2022/06/30 03:59:30;;;;;;;9.20;6.13;;;;;;;;;;4983660;28;20124;-72
2022/06/30 04:01:55;;;;;;;8.15;5.80;;;;;;;;;;4979946;28;20217;-71
2022/06/30 04:04:21;;;;;;;9.27;6.07;;;;;;;;;;4983292;28;20030;-71
2022/06/30 04:06:47;;;;;;;9.82;7.88;;;;;;;;;;4983123;28;20060;-72
2022/06/30 04:09:12;;;;;;;11.23;8.93;;;;;;;;;;4982353;28;20046;-71
2022/06/30 04:11:38;;;;;;;11.88;9.50;;;;;;;;;;4981987;28;20057;-71
2022/06/30 04:14:03;;;;;;;14.65;8.32;;;;;;;;;;4983530;28;20099;-71
2022/06/30 04:16:29;;;;;;;11.27;8.25;;;;;;;;;;4983489;28;20042;-72
2022/06/30 04:18:55;;;;;;;11.55;7.03;;;;;;;;;;4982659;28;20085;-72
2022/06/30 04:21:21;;;;;;;10.52;6.53;;;;;;;;;;4983197;28;20057;-72
2022/06/30 04:23:46;;;;;;;9.27;6.82;;;;;;;;;;4983064;28;20545;-72
2022/06/30 04:26:12;;;;;;;8.77;6.10;;;;;;;;;;4981966;28;20042;-72
2022/06/30 04:28:38;;;;;;;13.52;6.25;;;;;;;;;;4965363;28;20081;-72
2022/06/30 04:33:48;;;;;;;11.88;6.22;;;;;;;;;;4982866;28;20046;-70
2022/06/30 04:36:13;;;;;;;16.45;6.30;;;;;;;;;;4983077;28;20045;-72
2022/06/30 04:38:39;;;;;;;9.88;5.80;;;;;;;;;;4982175;28;20042;-72
2022/06/30 04:43:48;;;;;;;14.02;5.80;;;;;;;;;;4981023;28;20506;-73
2022/06/30 04:46:13;;;;;;;7.43;5.43;;;;;;;;;;4981143;28;20046;-72
2022/06/30 04:48:39;;;;;;;8.60;6.65;;;;;;;;;;4982676;28;20046;-72
2022/06/30 04:51:04;;;;;;;11.70;6.28;;;;;;;;;;4980919;28;20031;-72
2022/06/30 04:53:30;;;;;;;8.25;5.97;;;;;;;;;;4973574;28;20399;-72
2022/06/30 04:55:55;;;;;;;11.52;6.25;;;;;;;;;;4982222;28;20041;-72
2022/06/30 04:58:21;;;;;;;8.90;6.32;;;;;;;;;;4981926;28;20169;-72
2022/06/30 05:00:46;;;;;;;7.18;6.28;;;;;;;;;;4980596;28;20038;-72
2022/06/30 05:03:11;;;;;;;9.05;5.93;;;;;;;;;;4980720;28;20037;-72
2022/06/30 05:05:37;;;;;;;6.95;5.38;;;;;;;;;;4981178;28;20153;-72
2022/06/30 05:08:02;;;;;;;5.57;5.07;;;;;;;;;;4980974;28;20117;-72
2022/06/30 05:10:28;;;;;;;7.28;4.28;;;;;;;;;;4991157;28;20518;-73
2022/06/30 05:12:53;;;;;;;7.32;3.60;;;;;;;;;;4980901;28;20058;-73
2022/06/30 05:15:19;;;;;;;8.32;3.78;;;;;;;;;;4979602;28;20377;-73
2022/06/30 05:17:44;;;;;;;5.80;3.80;;;;;;;;;;4979340;28;20489;-73
2022/06/30 05:20:10;;;;;;;5.70;3.85;;;;;;;;;;4977274;28;20487;-73
2022/06/30 05:22:36;;;;;;;10.77;4.25;;;;;;;;;;4976429;28;20023;-73
2022/06/30 05:27:47;;;;;;;10.95;4.45;;;;;;;;;;4976497;28;20043;-74
2022/06/30 05:30:14;;;;;;;4.43;3.90;;;;;;;;;;4975670;28;20491;-73
2022/06/30 05:32:39;;;;;;;4.82;3.63;;;;;;;;;;4977053;28;20042;-73
2022/06/30 05:35:05;;;;;;;5.07;3.80;;;;;;;;;;4978166;28;20038;-73
2022/06/30 05:37:31;;;;;;;4.75;3.60;;;;;;;;;;4979258;28;20157;-72
2022/06/30 05:39:56;;;;;;;4.43;3.28;;;;;;;;;;4981578;28;20129;-71
2022/06/30 05:42:22;;;;;;;5.68;3.63;;;;;;;;;;4982092;28;20066;-70
2022/06/30 05:44:48;;;;;;;6.68;3.60;;;;;;;;;;4981683;28;20048;-71
2022/06/30 05:47:13;;;;;;;7.47;3.47;;;;;;;;;;4980457;28;20411;-71
2022/06/30 05:49:39;;;;;;;7.55;3.90;;;;;;;;;;4981935;28;20034;-70
2022/06/30 05:52:04;;;;;;;6.57;3.60;;;;;;;;;;4981888;28;20030;-71
2022/06/30 05:54:30;;;;;;;8.07;3.45;;;;;;;;;;4980202;28;20513;-70
2022/06/30 05:56:55;;;;;;;5.15;3.50;;;;;;;;;;4977869;28;20042;-70
2022/06/30 05:59:21;;;;;;;7.50;3.47;;;;;;;;;;4978888;28;20046;-70
2022/06/30 06:01:46;;;;;;;6.65;3.35;;;;;;;;;;4981974;28;20030;-70
2022/06/30 06:04:11;;;;;;;5.32;3.47;;;;;;;;;;4979402;28;20030;-69
2022/06/30 06:06:37;;;;;;;9.30;3.58;;;;;;;;;;4981536;28;20046;-70
2022/06/30 06:09:02;;;;;;;4.95;3.08;;;;;;;;;;4981192;28;20038;-70
2022/06/30 06:11:30;;;;;;;3.72;3.22;;;;;;;;;;4981776;28;20041;-70
2022/06/30 06:13:55;;;;;;;6.40;2.70;;;;;;;;;;4981652;28;20038;-70
2022/06/30 06:16:21;;;;;;;4.22;3.22;;;;;;;;;;4981613;28;20049;-70
2022/06/30 06:18:46;;;;;;;5.30;3.20;;;;;;;;;;4981980;28;20049;-70
2022/06/30 06:21:12;;;;;;;5.00;3.13;;;;;;;;;;4981112;28;20034;-70
2022/06/30 06:23:38;;;;;;;5.88;3.22;;;;;;;;;;4981829;28;20048;-70
2022/06/30 06:26:03;;;;;;;11.25;3.45;;;;;;;;;;4981216;28;20061;-71
2022/06/30 06:31:26;;;;;;;3.85;3.15;;;;;;;;;;4964461;28;20050;-71
2022/06/30 06:33:52;;;;;;;8.77;3.35;;;;;;;;;;4982667;28;20438;-71
2022/06/30 06:36:17;;;;;;;5.22;3.08;;;;;;;;;;4982492;28;20574;-70
2022/06/30 06:38:43;;;;;;;5.50;2.97;;;;;;;;;;4982546;28;20026;-71
2022/06/30 06:41:08;;;;;;;4.78;3.10;;;;;;;;;;4981260;28;20054;-71
2022/06/30 06:43:35;;;;;;;4.65;2.92;;;;;;;;;;4981624;28;20146;-71
2022/06/30 06:46:00;;;;;;;9.35;3.20;;;;;;;;;;4981833;28;20053;-70
2022/06/30 06:48:25;;;;;;;5.97;2.80;;;;;;;;;;4981939;28;20034;-71
2022/06/30 06:50:51;;;;;;;9.00;3.00;;;;;;;;;;4982055;28;20411;-70
2022/06/30 06:53:16;;;;;;;5.60;3.25;;;;;;;;;;4980796;28;20069;-70
2022/06/30 06:55:42;;;;;;;3.55;2.70;;;;;;;;;;4981027;28;20031;-72
2022/06/30 06:58:08;;;;;;;8.40;2.90;;;;;;;;;;4980727;28;20517;-70
2022/06/30 07:00:34;;;;;;;5.68;3.05;;;;;;;;;;4982159;28;20842;-72
2022/06/30 07:03:00;;;;;;;7.90;3.42;;;;;;;;;;4980707;28;20030;-72
2022/06/30 07:05:25;;;;;;;9.40;3.53;;;;;;;;;;4980124;28;20514;-71
2022/06/30 07:08:00;;;;;;;3.45;2.95;;;;;;;;;;4982807;28;20053;-71
2022/06/30 07:10:27;;;;;;;5.15;3.25;;;;;;;;;;4984804;28;20042;-73
2022/06/30 07:12:54;;;;;;;6.47;3.35;;;;;;;;;;4984987;28;20041;-70
2022/06/30 07:15:21;;;;;;;8.02;3.17;;;;;;;;;;4984066;28;20035;-70
2022/06/30 07:17:47;;;;;;;5.55;3.30;;;;;;;;;;4985256;28;20042;-71
2022/06/30 07:20:12;;;;;;;7.40;3.42;;;;;;;;;;4983886;28;20048;-71
2022/06/30 07:22:38;;;;;;;5.05;3.00;;;;;;;;;;4985064;28;20034;-71
2022/06/30 07:25:05;;;;;;;8.98;3.20;;;;;;;;;;4985896;28;20974;-71
2022/06/30 07:27:31;;;;;;;7.53;3.40;;;;;;;;;;4984350;28;20065;-70
2022/06/30 07:29:56;;;;;;;5.30;3.28;;;;;;;;;;4985287;28;20691;-70
2022/06/30 07:32:22;;;;;;;8.75;3.40;;;;;;;;;;4985683;28;20041;-71
2022/06/30 07:34:47;;;;;;;7.28;3.22;;;;;;;;;;4983723;28;20108;-70
2022/06/30 07:37:12;;;;;;;5.70;3.35;;;;;;;;;;4983998;28;20145;-69
2022/06/30 07:39:38;;;;;;;5.43;3.65;;;;;;;;;;4984697;28;20049;-70
2022/06/30 07:42:04;;;;;;;4.80;3.60;;;;;;;;;;4985017;28;20034;-70
2022/06/30 07:44:29;;;;;;;5.25;3.50;;;;;;;;;;4984905;28;20034;-70
2022/06/30 07:46:54;;;;;;;4.30;3.15;;;;;;;;;;4985066;28;20383;-70
2022/06/30 07:49:20;;;;;;;5.28;3.33;;;;;;;;;;4982905;28;20064;-71
2022/06/30 07:51:45;;;;;;;6.07;3.38;;;;;;;;;;4984390;28;20509;-71
2022/06/30 07:54:11;;;;;;;8.20;4.05;;;;;;;;;;4984019;28;20046;-72
2022/06/30 07:56:36;;;;;;;5.35;3.65;;;;;;;;;;4983883;28;20038;-70
2022/06/30 07:59:02;;;;;;;4.68;3.60;;;;;;;;;;4983119;28;20049;-71
2022/06/30 08:01:28;;;;;;;7.07;3.72;;;;;;;;;;4984318;28;20045;-72
2022/06/30 08:03:53;;;;;;;7.32;3.53;;;;;;;;;;4983984;28;20172;-73
2022/06/30 08:06:19;;;;;;;9.43;3.50;;;;;;;;;;4983655;28;20049;-72
2022/06/30 08:08:44;;;;;;;4.97;3.05;;;;;;;;;;4983450;28;20038;-72
2022/06/30 08:11:10;;;;;;;5.85;3.03;;;;;;;;;;4982425;28;20411;-71
2022/06/30 08:13:36;;;;;;;5.35;2.70;;;;;;;;;;4982941;28;20411;-71
2022/06/30 08:16:03;;;;;;;6.63;2.50;;;;;;;;;;4983870;28;20042;-70
2022/06/30 08:18:29;;;;;;;6.25;3.10;;;;;;;;;;4982928;28;20038;-69
2022/06/30 08:20:55;;;;;;;2.92;2.60;;;;;;;;;;4981419;28;20487;-72
2022/06/30 08:23:20;;;;;;;5.28;2.78;;;;;;;;;;4983662;28;20463;-70
2022/06/30 08:25:45;;;;;;;3.60;2.53;;;;;;;;;;4983649;28;20038;-70
2022/06/30 08:28:11;;;;;;;10.13;2.70;;;;;;;;;;4984295;28;20045;-70
2022/06/30 08:30:36;;;;;;;7.05;2.35;;;;;;;;;;4984642;28;20061;-70
2022/06/30 08:33:02;;;;;;;4.78;2.55;;;;;;;;;;4982767;28;20046;-71
2022/06/30 08:35:28;;;;;;;7.60;2.60;;;;;;;;;;4984536;28;20145;-71
2022/06/30 08:37:54;;;;;;;4.78;2.08;;;;;;;;;;4983659;28;20048;-72
2022/06/30 08:43:08;;;;;;;3.63;2.22;;;;;;;;;;4982591;28;20066;-71
2022/06/30 08:45:35;;;;;;;5.68;2.45;;;;;;;;;;4984001;28;20026;-71
2022/06/30 08:48:00;;;;;;;6.38;2.20;;;;;;;;;;4984186;28;20030;-72
2022/06/30 08:50:26;;;;;;;3.45;2.28;;;;;;;;;;4983069;28;20101;-70
2022/06/30 08:52:57;;;;;;;8.15;2.60;;;;;;;;;;4982936;28;20046;-71
2022/06/30 08:55:25;;;;;;;4.45;2.28;;;;;;;;;;4983423;28;20141;-72
2022/06/30 08:57:55;;;;;;;6.90;2.70;;;;;;;;;;4981975;28;20125;-73
2022/06/30 09:00:21;;;;;;;4.60;2.60;;;;;;;;;;4982188;28;20077;-71
2022/06/30 09:02:46;;;;;;;5.90;2.90;;;;;;;;;;4983744;28;20062;-70
2022/06/30 09:05:13;;;;;;;8.32;2.35;;;;;;;;;;4983644;28;20038;-70
2022/06/30 09:07:38;;;;;;;3.00;2.38;;;;;;;;;;4975587;28;20038;-71
2022/06/30 09:10:05;;;;;;;3.08;2.30;;;;;;;;;;4982264;28;20064;-71
2022/06/30 09:12:31;;;;;;;6.72;2.47;;;;;;;;;;4981708;28;20061;-71
2022/06/30 09:14:57;;;;;;;6.85;2.60;;;;;;;;;;4982330;28;20042;-71
2022/06/30 09:17:26;;;;;;;6.95;3.08;;;;;;;;;;4981320;28;20038;-71
2022/06/30 09:20:04;;;;;;;5.93;2.70;;;;;;;;;;4982315;28;20038;-71
2022/06/30 09:22:41;;;;;;;4.35;2.50;;;;;;;;;;4982574;28;20034;-72
2022/06/30 09:25:15;;;;;;;5.80;2.53;;;;;;;;;;4982259;28;20046;-71
2022/06/30 09:27:47;;;;;;;6.30;3.15;;;;;;;;;;4981245;28;20037;-72
2022/06/30 09:30:13;;;;;;;8.38;2.72;;;;;;;;;;4982904;28;20088;-71
2022/06/30 09:33:05;;;;;;;3.10;2.45;;;;;;;;;;4981421;28;20065;-72
2022/06/30 09:35:31;;;;;;;10.45;2.30;;;;;;;;;;4982135;28;20444;-71
2022/06/30 09:38:05;;;;;;;5.65;2.30;;;;;;;;;;4981056;28;20042;-70
2022/06/30 09:41:02;;;;;;;4.82;2.75;;;;;;;;;;4981657;28;20042;-70
2022/06/30 09:43:36;;;;;;;7.78;2.70;;;;;;;;;;4981942;28;20037;-71
2022/06/30 09:46:02;;;;;;;7.32;2.47;;;;;;;;;;4981601;28;20061;-69
2022/06/30 09:48:31;;;;;;;8.38;3.13;;;;;;;;;;4980602;28;20101;-70
2022/06/30 09:50:58;;;;;;;7.50;2.95;;;;;;;;;;4980491;28;20037;-70
2022/06/30 09:53:24;;;;;;;7.13;2.90;;;;;;;;;;4979980;28;20034;-71
2022/06/30 09:55:49;;;;;;;9.55;2.90;;;;;;;;;;4981070;28;20043;-71
2022/06/30 09:58:30;;;;;;;2.75;2.50;;;;;;;;;;4979742;28;20121;-71
2022/06/30 10:00:55;;;;;;;5.22;2.67;;;;;;;;;;4978869;28;20120;-70
2022/06/30 10:03:21;;;;;;;4.93;2.60;;;;;;;;;;4981264;28;20030;-72
2022/06/30 10:05:49;;;;;;;4.72;2.65;;;;;;;;;;4981638;28;20825;-71
2022/06/30 10:08:16;;;;;;;5.22;2.67;;;;;;;;;;4981227;28;20497;-71
2022/06/30 10:10:43;;;;;;;7.65;2.55;;;;;;;;;;4979300;28;20038;-71
2022/06/30 10:13:18;;;;;;;7.35;2.88;;;;;;;;;;4979790;28;20088;-70
2022/06/30 10:15:49;;;;;;;5.53;2.60;;;;;;;;;;4980273;28;20030;-71
2022/06/30 10:18:16;;;;;;;7.93;2.75;;;;;;;;;;4978453;28;20042;-70
2022/06/30 10:20:45;;;;;;;5.63;2.47;;;;;;;;;;4979665;28;20042;-70
2022/06/30 10:23:10;;;;;;;7.93;2.22;;;;;;;;;;4977750;28;20052;-70
2022/06/30 10:25:36;;;;;;;7.90;2.50;;;;;;;;;;4979668;28;20042;-71
2022/06/30 10:28:03;;;;;;;5.47;2.78;;;;;;;;;;4980589;28;20042;-70
2022/06/30 10:30:42;;;;;;;5.68;2.80;;;;;;;;;;4981401;28;20034;-70
2022/06/30 10:33:24;;;;;;;6.50;2.50;;;;;;;;;;4981135;28;20050;-70
2022/06/30 10:35:58;;;;;;;4.90;2.42;;;;;;;;;;4980897;28;20121;-69
2022/06/30 10:38:42;;;;;;;5.15;2.55;;;;;;;;;;4979732;28;20026;-70
2022/06/30 10:41:12;;;;;;;7.63;2.83;;;;;;;;;;4981518;28;20056;-70
2022/06/30 10:44:02;;;;;;;5.88;2.58;;;;;;;;;;4983619;28;21031;-72
2022/06/30 10:46:28;;;;;;;3.40;2.22;;;;;;;;;;4984642;28;20060;-71
2022/06/30 10:48:54;;;;;;;6.40;2.50;;;;;;;;;;4983277;28;20038;-71
2022/06/30 10:51:21;;;;;;;2.80;2.25;;;;;;;;;;4985004;28;20045;-71
2022/06/30 10:53:49;;;;;;;9.55;2.70;;;;;;;;;;4984729;28;20034;-71
2022/06/30 10:56:15;;;;;;;8.00;2.50;;;;;;;;;;4984962;28;20077;-71
2022/06/30 10:59:05;;;;;;;5.63;1.92;;;;;;;;;;4982194;28;20080;-71
2022/06/30 11:01:31;;;;;;;4.37;2.30;;;;;;;;;;4984588;28;20081;-72
2022/06/30 11:03:56;;;;;;;6.00;2.20;;;;;;;;;;4984901;28;20285;-69
2022/06/30 11:06:26;;;;;;;7.28;2.40;;;;;;;;;;4984342;28;20392;-69
2022/06/30 11:08:57;;;;;;;6.90;2.35;;;;;;;;;;4984334;28;20075;-69
2022/06/30 11:11:23;;;;;;;4.88;2.10;;;;;;;;;;4983601;28;20491;-69
2022/06/30 11:14:11;;;;;;;3.80;2.10;;;;;;;;;;4984216;28;20045;-70
2022/06/30 11:16:38;;;;;;;6.35;2.40;;;;;;;;;;4983791;28;20062;-69
2022/06/30 11:19:13;;;;;;;4.75;2.80;;;;;;;;;;4984283;28;20045;-69
2022/06/30 11:21:42;;;;;;;5.40;2.50;;;;;;;;;;4983431;28;20050;-70
2022/06/30 11:24:10;;;;;;;8.35;2.67;;;;;;;;;;4984292;28;20027;-69
2022/06/30 11:29:23;;;;;;;10.20;2.45;;;;;;;;;;4983331;28;20038;-68
2022/06/30 11:31:50;;;;;;;5.90;2.30;;;;;;;;;;4982848;28;20045;-71
2022/06/30 11:34:19;;;;;;;6.38;2.28;;;;;;;;;;4983802;28;20517;-70
2022/06/30 11:36:45;;;;;;;7.57;2.33;;;;;;;;;;4984415;28;20057;-70
2022/06/30 11:39:19;;;;;;;8.23;2.40;;;;;;;;;;4983728;28;20800;-71
2022/06/30 11:41:55;;;;;;;8.15;2.03;;;;;;;;;;4984331;28;20088;-70
2022/06/30 11:44:24;;;;;;;4.85;2.20;;;;;;;;;;4982879;28;20042;-72
2022/06/30 11:47:04;;;;;;;7.70;1.98;;;;;;;;;;4983963;28;20038;-70
2022/06/30 11:50:12;;;;;;;7.28;2.53;;;;;;;;;;4984295;28;20450;-71
2022/06/30 11:52:38;;;;;;;7.88;2.40;;;;;;;;;;4980690;28;20141;-72
2022/06/30 11:55:05;;;;;;;7.85;2.30;;;;;;;;;;4981920;28;20038;-72
2022/06/30 11:57:33;;;;;;;9.52;2.13;;;;;;;;;;4983066;28;20042;-72
2022/06/30 12:00:04;;;;;;;5.00;2.22;;;;;;;;;;4983616;28;20037;-72
2022/06/30 12:02:33;;;;;;;8.18;2.33;;;;;;;;;;4983925;28;20038;-72
2022/06/30 12:05:00;;;;;;;5.75;2.45;;;;;;;;;;4981575;28;20499;-72
2022/06/30 12:07:27;;;;;;;7.80;2.60;;;;;;;;;;4982013;28;20045;-73
2022/06/30 12:09:54;;;;;;;4.38;2.50;;;;;;;;;;4983456;28;20136;-70
2022/06/30 12:12:26;;;;;;;5.22;2.30;;;;;;;;;;4983184;28;20077;-70
2022/06/30 12:14:54;;;;;;;4.65;2.13;;;;;;;;;;4982915;28;20137;-70
2022/06/30 12:17:20;;;;;;;7.03;2.47;;;;;;;;;;4980325;28;20085;-70
2022/06/30 12:19:46;;;;;;;5.25;2.42;;;;;;;;;;4982977;28;20042;-70
2022/06/30 12:22:12;;;;;;;12.13;2.10;;;;;;;;;;4982719;28;20026;-70
2022/06/30 12:24:44;;;;;;;5.78;2.20;;;;;;;;;;4981594;28;20034;-69
2022/06/30 12:27:25;;;;;;;4.75;2.25;;;;;;;;;;4981116;28;20038;-70
2022/06/30 12:30:01;;;;;;;5.80;2.53;;;;;;;;;;4982626;28;20053;-70
2022/06/30 12:32:28;;;;;;;14.63;2.50;;;;;;;;;;4982458;28;20045;-71
2022/06/30 12:34:59;;;;;;;4.35;2.33;;;;;;;;;;4983018;28;20034;-71
2022/06/30 12:37:45;;;;;;;7.18;2.20;;;;;;;;;;4981721;28;20040;-70
2022/06/30 12:40:13;;;;;;;5.50;2.38;;;;;;;;;;4982415;28;20073;-71
2022/06/30 12:42:40;;;;;;;8.10;2.30;;;;;;;;;;4982566;28;20046;-71
2022/06/30 12:45:26;;;;;;;5.95;2.35;;;;;;;;;;4982622;28;21000;-70
2022/06/30 12:47:51;;;;;;;7.20;2.50;;;;;;;;;;4981789;28;20037;-71
2022/06/30 12:50:21;;;;;;;5.90;2.63;;;;;;;;;;4981279;28;20072;-69
2022/06/30 12:52:46;;;;;;;8.20;2.75;;;;;;;;;;4981880;28;20259;-71
2022/06/30 12:55:12;;;;;;;6.25;2.72;;;;;;;;;;4981153;28;20499;-72
2022/06/30 12:57:37;;;;;;;7.55;2.08;;;;;;;;;;4981927;28;20056;-71
2022/06/30 13:00:03;;;;;;;7.40;2.45;;;;;;;;;;4980199;28;20045;-71
2022/06/30 13:02:39;;;;;;;4.70;2.30;;;;;;;;;;4980661;28;20084;-72
2022/06/30 13:05:09;;;;;;;11.10;2.03;;;;;;;;;;4982146;28;20046;-72
2022/06/30 13:07:36;;;;;;;7.70;2.42;;;;;;;;;;4981266;28;20173;-72
2022/06/30 13:10:03;;;;;;;10.18;2.38;;;;;;;;;;4980709;28;20045;-72
2022/06/30 13:12:28;;;;;;;6.60;2.15;;;;;;;;;;4980660;28;20499;-72
2022/06/30 13:14:53;;;;;;;3.42;1.92;;;;;;;;;;4982103;28;20053;-71
2022/06/30 13:17:19;;;;;;;3.30;1.90;;;;;;;;;;4981728;28;20125;-71
2022/06/30 13:19:45;;;;;;;8.40;2.25;;;;;;;;;;4981606;28;20131;-71
2022/06/30 13:22:11;;;;;;;4.28;2.53;;;;;;;;;;4981128;28;20582;-72
2022/06/30 13:24:36;;;;;;;9.73;2.70;;;;;;;;;;4980591;28;20025;-71
2022/06/30 13:27:03;;;;;;;9.02;2.80;;;;;;;;;;4981764;28;20078;-71
2022/06/30 13:29:34;;;;;;;4.78;2.50;;;;;;;;;;4980202;28;20547;-70
2022/06/30 13:31:59;;;;;;;5.72;2.28;;;;;;;;;;4981250;28;20045;-72
2022/06/30 13:34:26;;;;;;;4.82;2.58;;;;;;;;;;4981139;28;20046;-72
2022/06/30 13:36:52;;;;;;;4.35;2.80;;;;;;;;;;4981372;28;20483;-71
2022/06/30 13:39:17;;;;;;;7.28;2.40;;;;;;;;;;4980461;28;20042;-71
2022/06/30 13:41:43;;;;;;;8.25;2.70;;;;;;;;;;4981603;28;20488;-71
2022/06/30 13:44:09;;;;;;;8.52;2.92;;;;;;;;;;4980687;28;20030;-71
2022/06/30 13:46:38;;;;;;;7.30;2.75;;;;;;;;;;4981877;28;20407;-71
2022/06/30 13:49:05;;;;;;;6.95;2.55;;;;;;;;;;4979579;28;20125;-70
2022/06/30 13:51:32;;;;;;;8.77;2.67;;;;;;;;;;4981640;28;20148;-70
2022/06/30 13:53:58;;;;;;;9.25;2.85;;;;;;;;;;4980517;28;20081;-70
2022/06/30 13:56:25;;;;;;;8.55;2.75;;;;;;;;;;4977948;28;20121;-71
2022/06/30 13:58:52;;;;;;;7.60;2.97;;;;;;;;;;4979941;28;20038;-70
2022/06/30 14:01:18;;;;;;;5.68;3.00;;;;;;;;;;4982048;28;20454;-70
2022/06/30 14:03:43;;;;;;;6.65;2.72;;;;;;;;;;4981140;28;20042;-70
2022/06/30 14:06:09;;;;;;;5.72;2.67;;;;;;;;;;4979450;28;20042;-70
2022/06/30 14:08:34;;;;;;;21.77;2.75;;;;;;;;;;4980939;28;20045;-71
2022/06/30 14:11:00;;;;;;;6.57;2.85;;;;;;;;;;4981084;28;20034;-70
2022/06/30 14:13:26;;;;;;;6.53;2.63;;;;;;;;;;4964749;28;20538;-71
2022/06/30 14:15:52;;;;;;;6.80;2.78;;;;;;;;;;4981384;28;20137;-72
2022/06/30 14:18:18;;;;;;;6.10;2.80;;;;;;;;;;4981788;28;20117;-72
2022/06/30 14:20:45;;;;;;;7.47;3.13;;;;;;;;;;4983448;28;21016;-72
2022/06/30 14:23:10;;;;;;;6.55;2.53;;;;;;;;;;4983935;28;20026;-71
2022/06/30 14:25:36;;;;;;;5.68;2.83;;;;;;;;;;4986348;28;20037;-73
2022/06/30 14:28:02;;;;;;;3.72;2.53;;;;;;;;;;4984147;28;20069;-72
2022/06/30 14:30:28;;;;;;;4.90;2.72;;;;;;;;;;4983498;28;20089;-73
2022/06/30 14:32:53;;;;;;;7.85;2.70;;;;;;;;;;4983373;28;20048;-73
2022/06/30 14:35:19;;;;;;;6.80;2.85;;;;;;;;;;4983629;28;20077;-73
2022/06/30 14:37:44;;;;;;;4.55;2.75;;;;;;;;;;4982744;28;20454;-72
2022/06/30 14:40:11;;;;;;;4.65;2.75;;;;;;;;;;4980569;28;20057;-72
2022/06/30 14:42:44;;;;;;;3.97;2.78;;;;;;;;;;4983161;28;20037;-71
2022/06/30 14:45:20;;;;;;;6.90;3.03;;;;;;;;;;4984907;28;20080;-72
2022/06/30 14:47:47;;;;;;;4.18;2.75;;;;;;;;;;4984541;28;20121;-72
2022/06/30 14:50:13;;;;;;;3.92;2.58;;;;;;;;;;4966234;28;21027;-72
2022/06/30 14:52:39;;;;;;;6.03;2.83;;;;;;;;;;4984702;28;20046;-72
2022/06/30 14:55:06;;;;;;;2.72;2.50;;;;;;;;;;4984394;28;20447;-72
2022/06/30 14:57:37;;;;;;;3.53;2.78;;;;;;;;;;4989491;28;20034;-72
2022/06/30 15:00:13;;;;;;;4.93;2.90;;;;;;;;;;4986998;28;20042;-72